sensor_id;sensor_type;location;lat;lon;timestamp;P1;durP1;ratioP1;P2;durP2;ratioP2
5684;SDS011;2865;53.114;9.130;2023-07-31T00:02:00;10.90;;;2.70;;
5684;SDS011;2865;53.114;9.130;2023-07-31T00:04:25;12.90;;;3.07;;
5684;SDS011;2865;53.114;9.130;2023-07-31T00:06:51;8.90;;;3.27;;
5684;SDS011;2865;53.114;9.130;2023-07-31T00:09:16;6.13;;;2.70;;
5684;SDS011;2865;53.114;9.130;2023-07-31T00:11:41;13.67;;;2.70;;
5684;SDS011;2865;53.114;9.130;2023-07-31T00:14:07;10.77;;;2.73;;
5684;SDS011;2865;53.114;9.130;2023-07-31T00:16:32;7.77;;;2.80;;
5684;SDS011;2865;53.114;9.130;2023-07-31T00:18:58;6.80;;;3.67;;
5684;SDS011;2865;53.114;9.130;2023-07-31T00:21:23;7.23;;;2.80;;
5684;SDS011;2865;53.114;9.130;2023-07-31T00:23:49;7.00;;;3.07;;
5684;SDS011;2865;53.114;9.130;2023-07-31T00:26:14;7.00;;;3.20;;
5684;SDS011;2865;53.114;9.130;2023-07-31T00:28:40;6.40;;;3.40;;
5684;SDS011;2865;53.114;9.130;2023-07-31T00:31:05;11.17;;;2.90;;
5684;SDS011;2865;53.114;9.130;2023-07-31T00:33:30;7.33;;;2.43;;
5684;SDS011;2865;53.114;9.130;2023-07-31T00:35:56;10.30;;;3.40;;
5684;SDS011;2865;53.114;9.130;2023-07-31T00:38:21;8.37;;;2.67;;
5684;SDS011;2865;53.114;9.130;2023-07-31T00:40:46;4.90;;;2.87;;
5684;SDS011;2865;53.114;9.130;2023-07-31T00:43:12;5.23;;;2.87;;
5684;SDS011;2865;53.114;9.130;2023-07-31T00:45:37;5.37;;;2.93;;
5684;SDS011;2865;53.114;9.130;2023-07-31T00:48:03;5.30;;;2.80;;
5684;SDS011;2865;53.114;9.130;2023-07-31T00:50:28;5.67;;;3.10;;
5684;SDS011;2865;53.114;9.130;2023-07-31T00:52:54;5.53;;;2.30;;
5684;SDS011;2865;53.114;9.130;2023-07-31T00:55:19;3.10;;;2.80;;
5684;SDS011;2865;53.114;9.130;2023-07-31T00:57:45;8.10;;;3.40;;
5684;SDS011;2865;53.114;9.130;2023-07-31T01:00:10;5.93;;;2.53;;
5684;SDS011;2865;53.114;9.130;2023-07-31T01:02:37;11.87;;;2.70;;
5684;SDS011;2865;53.114;9.130;2023-07-31T01:05:02;4.50;;;2.70;;
5684;SDS011;2865;53.114;9.130;2023-07-31T01:07:34;3.03;;;2.70;;
5684;SDS011;2865;53.114;9.130;2023-07-31T01:10:03;4.20;;;1.90;;
5684;SDS011;2865;53.114;9.130;2023-07-31T01:12:27;12.23;;;3.27;;
5684;SDS011;2865;53.114;9.130;2023-07-31T01:17:27;6.67;;;2.70;;
5684;SDS011;2865;53.114;9.130;2023-07-31T01:19:53;5.43;;;2.67;;
5684;SDS011;2865;53.114;9.130;2023-07-31T01:22:23;3.57;;;2.77;;
5684;SDS011;2865;53.114;9.130;2023-07-31T01:24:52;7.30;;;3.07;;
5684;SDS011;2865;53.114;9.130;2023-07-31T01:27:15;4.80;;;2.73;;
5684;SDS011;2865;53.114;9.130;2023-07-31T01:29:47;4.40;;;2.80;;
5684;SDS011;2865;53.114;9.130;2023-07-31T01:32:15;3.00;;;2.50;;
5684;SDS011;2865;53.114;9.130;2023-07-31T01:34:40;5.90;;;2.40;;
5684;SDS011;2865;53.114;9.130;2023-07-31T01:37:05;4.27;;;2.67;;
5684;SDS011;2865;53.114;9.130;2023-07-31T01:39:31;3.93;;;2.50;;
5684;SDS011;2865;53.114;9.130;2023-07-31T01:41:56;7.23;;;2.77;;
5684;SDS011;2865;53.114;9.130;2023-07-31T01:44:22;5.90;;;3.33;;
5684;SDS011;2865;53.114;9.130;2023-07-31T01:46:47;5.50;;;2.53;;
5684;SDS011;2865;53.114;9.130;2023-07-31T01:49:13;3.33;;;2.87;;
5684;SDS011;2865;53.114;9.130;2023-07-31T01:51:38;7.33;;;2.70;;
5684;SDS011;2865;53.114;9.130;2023-07-31T01:54:03;6.57;;;2.57;;
5684;SDS011;2865;53.114;9.130;2023-07-31T01:56:29;5.03;;;2.77;;
5684;SDS011;2865;53.114;9.130;2023-07-31T01:58:54;2.83;;;2.63;;
5684;SDS011;2865;53.114;9.130;2023-07-31T02:01:20;5.90;;;2.87;;
5684;SDS011;2865;53.114;9.130;2023-07-31T02:03:45;5.63;;;4.03;;
5684;SDS011;2865;53.114;9.130;2023-07-31T02:06:10;7.27;;;2.83;;
5684;SDS011;2865;53.114;9.130;2023-07-31T02:08:36;4.07;;;2.70;;
5684;SDS011;2865;53.114;9.130;2023-07-31T02:11:01;3.43;;;2.70;;
5684;SDS011;2865;53.114;9.130;2023-07-31T02:13:27;2.77;;;2.50;;
5684;SDS011;2865;53.114;9.130;2023-07-31T02:15:52;4.67;;;2.53;;
5684;SDS011;2865;53.114;9.130;2023-07-31T02:18:17;6.67;;;2.80;;
5684;SDS011;2865;53.114;9.130;2023-07-31T02:20:43;5.90;;;2.97;;
5684;SDS011;2865;53.114;9.130;2023-07-31T02:23:09;4.17;;;2.67;;
5684;SDS011;2865;53.114;9.130;2023-07-31T02:25:34;5.47;;;2.57;;
5684;SDS011;2865;53.114;9.130;2023-07-31T02:27:59;3.50;;;2.73;;
5684;SDS011;2865;53.114;9.130;2023-07-31T02:30:25;3.10;;;2.70;;
5684;SDS011;2865;53.114;9.130;2023-07-31T02:32:50;3.57;;;2.93;;
5684;SDS011;2865;53.114;9.130;2023-07-31T02:35:16;8.73;;;2.90;;
5684;SDS011;2865;53.114;9.130;2023-07-31T02:37:42;3.73;;;3.33;;
5684;SDS011;2865;53.114;9.130;2023-07-31T02:40:07;2.67;;;2.47;;
5684;SDS011;2865;53.114;9.130;2023-07-31T02:42:33;3.70;;;3.40;;
5684;SDS011;2865;53.114;9.130;2023-07-31T02:44:58;8.70;;;3.20;;
5684;SDS011;2865;53.114;9.130;2023-07-31T02:47:23;3.43;;;3.13;;
5684;SDS011;2865;53.114;9.130;2023-07-31T02:49:49;3.60;;;3.27;;
5684;SDS011;2865;53.114;9.130;2023-07-31T02:52:14;4.30;;;3.27;;
5684;SDS011;2865;53.114;9.130;2023-07-31T02:54:39;6.20;;;2.90;;
5684;SDS011;2865;53.114;9.130;2023-07-31T02:57:05;4.60;;;3.23;;
5684;SDS011;2865;53.114;9.130;2023-07-31T02:59:30;4.03;;;2.87;;
5684;SDS011;2865;53.114;9.130;2023-07-31T03:01:56;3.43;;;2.83;;
5684;SDS011;2865;53.114;9.130;2023-07-31T03:04:21;2.90;;;2.60;;
5684;SDS011;2865;53.114;9.130;2023-07-31T03:06:47;4.00;;;3.50;;
5684;SDS011;2865;53.114;9.130;2023-07-31T03:09:12;10.80;;;4.37;;
5684;SDS011;2865;53.114;9.130;2023-07-31T03:11:38;2.93;;;2.70;;
5684;SDS011;2865;53.114;9.130;2023-07-31T03:14:04;7.77;;;3.27;;
5684;SDS011;2865;53.114;9.130;2023-07-31T03:16:29;7.37;;;2.90;;
5684;SDS011;2865;53.114;9.130;2023-07-31T03:18:55;5.87;;;3.30;;
5684;SDS011;2865;53.114;9.130;2023-07-31T03:21:20;3.00;;;2.70;;
5684;SDS011;2865;53.114;9.130;2023-07-31T03:23:45;3.23;;;2.90;;
5684;SDS011;2865;53.114;9.130;2023-07-31T03:26:11;3.63;;;3.33;;
5684;SDS011;2865;53.114;9.130;2023-07-31T03:28:36;4.50;;;2.90;;
5684;SDS011;2865;53.114;9.130;2023-07-31T03:31:02;4.57;;;2.80;;
5684;SDS011;2865;53.114;9.130;2023-07-31T03:33:27;4.90;;;2.80;;
5684;SDS011;2865;53.114;9.130;2023-07-31T03:35:53;4.10;;;3.30;;
5684;SDS011;2865;53.114;9.130;2023-07-31T03:38:18;4.80;;;2.90;;
5684;SDS011;2865;53.114;9.130;2023-07-31T03:40:43;3.13;;;2.93;;
5684;SDS011;2865;53.114;9.130;2023-07-31T03:43:09;3.20;;;2.77;;
5684;SDS011;2865;53.114;9.130;2023-07-31T03:45:34;3.40;;;3.10;;
5684;SDS011;2865;53.114;9.130;2023-07-31T03:48:00;5.90;;;3.47;;
5684;SDS011;2865;53.114;9.130;2023-07-31T03:50:25;6.53;;;3.67;;
5684;SDS011;2865;53.114;9.130;2023-07-31T03:52:51;2.97;;;2.53;;
5684;SDS011;2865;53.114;9.130;2023-07-31T03:55:16;4.40;;;3.50;;
5684;SDS011;2865;53.114;9.130;2023-07-31T03:57:42;5.40;;;2.80;;
5684;SDS011;2865;53.114;9.130;2023-07-31T04:00:08;4.30;;;2.73;;
5684;SDS011;2865;53.114;9.130;2023-07-31T04:02:34;2.83;;;2.63;;
5684;SDS011;2865;53.114;9.130;2023-07-31T04:04:59;3.70;;;3.40;;
5684;SDS011;2865;53.114;9.130;2023-07-31T04:07:24;3.87;;;3.43;;
5684;SDS011;2865;53.114;9.130;2023-07-31T04:09:50;4.20;;;3.43;;
5684;SDS011;2865;53.114;9.130;2023-07-31T04:12:15;4.27;;;3.90;;
5684;SDS011;2865;53.114;9.130;2023-07-31T04:14:41;4.17;;;3.87;;
5684;SDS011;2865;53.114;9.130;2023-07-31T04:17:06;4.03;;;3.73;;
5684;SDS011;2865;53.114;9.130;2023-07-31T04:19:32;5.10;;;3.93;;
5684;SDS011;2865;53.114;9.130;2023-07-31T04:21:57;5.30;;;3.60;;
5684;SDS011;2865;53.114;9.130;2023-07-31T04:24:22;4.00;;;3.60;;
5684;SDS011;2865;53.114;9.130;2023-07-31T04:26:49;5.33;;;4.27;;
5684;SDS011;2865;53.114;9.130;2023-07-31T04:29:15;3.87;;;3.57;;
5684;SDS011;2865;53.114;9.130;2023-07-31T04:31:40;4.40;;;4.00;;
5684;SDS011;2865;53.114;9.130;2023-07-31T04:34:06;3.87;;;3.57;;
5684;SDS011;2865;53.114;9.130;2023-07-31T04:36:33;4.67;;;4.20;;
5684;SDS011;2865;53.114;9.130;2023-07-31T04:38:57;6.43;;;4.23;;
5684;SDS011;2865;53.114;9.130;2023-07-31T04:41:23;4.90;;;4.27;;
5684;SDS011;2865;53.114;9.130;2023-07-31T04:43:48;4.93;;;4.60;;
5684;SDS011;2865;53.114;9.130;2023-07-31T04:46:14;4.70;;;4.30;;
5684;SDS011;2865;53.114;9.130;2023-07-31T04:48:39;5.53;;;4.97;;
5684;SDS011;2865;53.114;9.130;2023-07-31T04:51:04;4.03;;;3.73;;
5684;SDS011;2865;53.114;9.130;2023-07-31T04:53:30;5.33;;;4.87;;
5684;SDS011;2865;53.114;9.130;2023-07-31T04:55:55;8.00;;;5.27;;
5684;SDS011;2865;53.114;9.130;2023-07-31T04:58:21;6.07;;;4.70;;
5684;SDS011;2865;53.114;9.130;2023-07-31T05:00:46;5.47;;;5.03;;
5684;SDS011;2865;53.114;9.130;2023-07-31T05:03:11;5.27;;;4.77;;
5684;SDS011;2865;53.114;9.130;2023-07-31T05:05:37;5.57;;;5.07;;
5684;SDS011;2865;53.114;9.130;2023-07-31T05:08:03;5.60;;;4.70;;
5684;SDS011;2865;53.114;9.130;2023-07-31T05:10:28;6.13;;;5.20;;
5684;SDS011;2865;53.114;9.130;2023-07-31T05:12:54;6.73;;;5.83;;
5684;SDS011;2865;53.114;9.130;2023-07-31T05:15:19;10.70;;;5.90;;
5684;SDS011;2865;53.114;9.130;2023-07-31T05:17:45;6.57;;;5.50;;
5684;SDS011;2865;53.114;9.130;2023-07-31T05:20:10;6.13;;;5.63;;
5684;SDS011;2865;53.114;9.130;2023-07-31T05:22:36;5.20;;;4.80;;
5684;SDS011;2865;53.114;9.130;2023-07-31T05:25:02;5.00;;;4.60;;
5684;SDS011;2865;53.114;9.130;2023-07-31T05:27:27;5.50;;;5.00;;
5684;SDS011;2865;53.114;9.130;2023-07-31T05:29:53;5.03;;;4.63;;
5684;SDS011;2865;53.114;9.130;2023-07-31T05:32:18;4.40;;;4.10;;
5684;SDS011;2865;53.114;9.130;2023-07-31T05:34:43;6.10;;;5.50;;
5684;SDS011;2865;53.114;9.130;2023-07-31T05:37:10;4.90;;;4.50;;
5684;SDS011;2865;53.114;9.130;2023-07-31T05:39:34;5.07;;;4.60;;
5684;SDS011;2865;53.114;9.130;2023-07-31T05:42:00;5.33;;;4.83;;
5684;SDS011;2865;53.114;9.130;2023-07-31T05:44:25;4.50;;;4.20;;
5684;SDS011;2865;53.114;9.130;2023-07-31T05:46:50;4.10;;;3.70;;
5684;SDS011;2865;53.114;9.130;2023-07-31T05:49:16;4.23;;;3.37;;
5684;SDS011;2865;53.114;9.130;2023-07-31T05:51:43;3.20;;;3.00;;
5684;SDS011;2865;53.114;9.130;2023-07-31T05:54:09;3.40;;;3.10;;
5684;SDS011;2865;53.114;9.130;2023-07-31T05:56:34;2.70;;;2.50;;
5684;SDS011;2865;53.114;9.130;2023-07-31T05:58:59;3.00;;;2.80;;
5684;SDS011;2865;53.114;9.130;2023-07-31T06:01:25;3.47;;;3.17;;
5684;SDS011;2865;53.114;9.130;2023-07-31T06:03:50;3.03;;;2.80;;
5684;SDS011;2865;53.114;9.130;2023-07-31T06:06:16;2.83;;;2.63;;
5684;SDS011;2865;53.114;9.130;2023-07-31T06:08:41;2.73;;;2.53;;
5684;SDS011;2865;53.114;9.130;2023-07-31T06:11:06;2.43;;;2.23;;
5684;SDS011;2865;53.114;9.130;2023-07-31T06:13:32;6.30;;;2.73;;
5684;SDS011;2865;53.114;9.130;2023-07-31T06:15:57;2.50;;;2.30;;
5684;SDS011;2865;53.114;9.130;2023-07-31T06:18:23;2.33;;;2.13;;
5684;SDS011;2865;53.114;9.130;2023-07-31T06:20:48;3.03;;;2.83;;
5684;SDS011;2865;53.114;9.130;2023-07-31T06:23:13;2.20;;;2.10;;
5684;SDS011;2865;53.114;9.130;2023-07-31T06:25:39;3.77;;;2.80;;
5684;SDS011;2865;53.114;9.130;2023-07-31T06:28:04;2.50;;;2.27;;
5684;SDS011;2865;53.114;9.130;2023-07-31T06:30:30;2.70;;;2.53;;
5684;SDS011;2865;53.114;9.130;2023-07-31T06:32:55;2.50;;;2.13;;
5684;SDS011;2865;53.114;9.130;2023-07-31T06:35:20;4.63;;;3.10;;
5684;SDS011;2865;53.114;9.130;2023-07-31T06:37:46;2.20;;;2.10;;
5684;SDS011;2865;53.114;9.130;2023-07-31T06:40:11;2.43;;;2.23;;
5684;SDS011;2865;53.114;9.130;2023-07-31T06:42:37;2.33;;;2.23;;
5684;SDS011;2865;53.114;9.130;2023-07-31T06:45:02;2.37;;;2.17;;
5684;SDS011;2865;53.114;9.130;2023-07-31T06:47:28;7.30;;;2.97;;
5684;SDS011;2865;53.114;9.130;2023-07-31T06:49:53;2.70;;;2.00;;
5684;SDS011;2865;53.114;9.130;2023-07-31T06:52:19;2.43;;;2.23;;
5684;SDS011;2865;53.114;9.130;2023-07-31T06:54:50;4.30;;;1.80;;
5684;SDS011;2865;53.114;9.130;2023-07-31T06:57:10;2.43;;;2.10;;
5684;SDS011;2865;53.114;9.130;2023-07-31T06:59:35;1.93;;;1.83;;
5684;SDS011;2865;53.114;9.130;2023-07-31T07:02:01;2.40;;;2.20;;
5684;SDS011;2865;53.114;9.130;2023-07-31T07:04:26;1.90;;;1.80;;
5684;SDS011;2865;53.114;9.130;2023-07-31T07:06:51;2.70;;;1.70;;
5684;SDS011;2865;53.114;9.130;2023-07-31T07:09:17;1.70;;;1.60;;
5684;SDS011;2865;53.114;9.130;2023-07-31T07:11:42;1.60;;;1.50;;
5684;SDS011;2865;53.114;9.130;2023-07-31T07:14:08;1.83;;;1.73;;
5684;SDS011;2865;53.114;9.130;2023-07-31T07:16:33;1.60;;;1.50;;
5684;SDS011;2865;53.114;9.130;2023-07-31T07:18:59;2.33;;;1.80;;
5684;SDS011;2865;53.114;9.130;2023-07-31T07:21:24;1.73;;;1.63;;
5684;SDS011;2865;53.114;9.130;2023-07-31T07:23:50;1.40;;;1.30;;
5684;SDS011;2865;53.114;9.130;2023-07-31T07:26:15;1.60;;;1.50;;
5684;SDS011;2865;53.114;9.130;2023-07-31T07:28:40;1.43;;;1.30;;
5684;SDS011;2865;53.114;9.130;2023-07-31T07:31:06;1.83;;;1.00;;
5684;SDS011;2865;53.114;9.130;2023-07-31T07:33:31;5.27;;;1.40;;
5684;SDS011;2865;53.114;9.130;2023-07-31T07:36:00;1.40;;;1.23;;
5684;SDS011;2865;53.114;9.130;2023-07-31T07:38:24;1.40;;;1.30;;
5684;SDS011;2865;53.114;9.130;2023-07-31T07:40:50;1.70;;;1.60;;
5684;SDS011;2865;53.114;9.130;2023-07-31T07:43:16;1.40;;;1.40;;
5684;SDS011;2865;53.114;9.130;2023-07-31T07:45:41;1.70;;;1.60;;
5684;SDS011;2865;53.114;9.130;2023-07-31T07:48:06;1.80;;;1.70;;
5684;SDS011;2865;53.114;9.130;2023-07-31T07:50:32;1.67;;;1.60;;
5684;SDS011;2865;53.114;9.130;2023-07-31T07:52:57;1.67;;;1.57;;
5684;SDS011;2865;53.114;9.130;2023-07-31T07:55:23;2.30;;;2.10;;
5684;SDS011;2865;53.114;9.130;2023-07-31T07:57:48;4.43;;;2.53;;
5684;SDS011;2865;53.114;9.130;2023-07-31T08:00:14;2.37;;;2.10;;
5684;SDS011;2865;53.114;9.130;2023-07-31T08:02:39;5.63;;;3.33;;
5684;SDS011;2865;53.114;9.130;2023-07-31T08:05:05;5.80;;;3.00;;
5684;SDS011;2865;53.114;9.130;2023-07-31T08:07:31;4.13;;;3.73;;
5684;SDS011;2865;53.114;9.130;2023-07-31T08:09:56;4.87;;;3.67;;
5684;SDS011;2865;53.114;9.130;2023-07-31T08:12:22;6.40;;;4.67;;
5684;SDS011;2865;53.114;9.130;2023-07-31T08:14:48;7.93;;;4.60;;
5684;SDS011;2865;53.114;9.130;2023-07-31T08:17:14;5.53;;;4.77;;
5684;SDS011;2865;53.114;9.130;2023-07-31T08:19:39;14.63;;;5.10;;
5684;SDS011;2865;53.114;9.130;2023-07-31T08:22:04;5.50;;;4.80;;
5684;SDS011;2865;53.114;9.130;2023-07-31T08:24:30;8.60;;;5.50;;
5684;SDS011;2865;53.114;9.130;2023-07-31T08:26:55;10.30;;;6.00;;
5684;SDS011;2865;53.114;9.130;2023-07-31T08:29:21;9.50;;;6.80;;
5684;SDS011;2865;53.114;9.130;2023-07-31T08:31:46;13.00;;;6.80;;
5684;SDS011;2865;53.114;9.130;2023-07-31T08:34:12;11.10;;;8.57;;
5684;SDS011;2865;53.114;9.130;2023-07-31T08:36:37;14.97;;;8.97;;
5684;SDS011;2865;53.114;9.130;2023-07-31T08:39:02;19.13;;;9.47;;
5684;SDS011;2865;53.114;9.130;2023-07-31T08:41:28;15.70;;;8.17;;
5684;SDS011;2865;53.114;9.130;2023-07-31T08:43:53;21.20;;;8.17;;
5684;SDS011;2865;53.114;9.130;2023-07-31T08:46:19;17.83;;;9.53;;
5684;SDS011;2865;53.114;9.130;2023-07-31T08:48:44;18.50;;;9.87;;
5684;SDS011;2865;53.114;9.130;2023-07-31T08:51:09;15.00;;;9.30;;
5684;SDS011;2865;53.114;9.130;2023-07-31T08:53:35;19.47;;;10.10;;
5684;SDS011;2865;53.114;9.130;2023-07-31T08:56:00;17.77;;;9.97;;
5684;SDS011;2865;53.114;9.130;2023-07-31T08:58:27;17.20;;;8.30;;
5684;SDS011;2865;53.114;9.130;2023-07-31T09:00:53;15.60;;;8.30;;
5684;SDS011;2865;53.114;9.130;2023-07-31T09:03:18;18.60;;;9.20;;
5684;SDS011;2865;53.114;9.130;2023-07-31T09:05:45;14.10;;;9.10;;
5684;SDS011;2865;53.114;9.130;2023-07-31T09:08:10;24.30;;;9.80;;
5684;SDS011;2865;53.114;9.130;2023-07-31T09:10:35;22.03;;;10.20;;
5684;SDS011;2865;53.114;9.130;2023-07-31T09:13:00;12.17;;;8.53;;
5684;SDS011;2865;53.114;9.130;2023-07-31T09:15:25;12.50;;;8.83;;
5684;SDS011;2865;53.114;9.130;2023-07-31T09:17:58;16.47;;;8.80;;
5684;SDS011;2865;53.114;9.130;2023-07-31T09:20:17;21.00;;;9.67;;
5684;SDS011;2865;53.114;9.130;2023-07-31T09:22:44;22.20;;;8.23;;
5684;SDS011;2865;53.114;9.130;2023-07-31T09:25:17;18.20;;;7.93;;
5684;SDS011;2865;53.114;9.130;2023-07-31T09:27:46;15.63;;;7.43;;
5684;SDS011;2865;53.114;9.130;2023-07-31T09:30:12;18.63;;;8.00;;
5684;SDS011;2865;53.114;9.130;2023-07-31T09:32:38;13.87;;;7.50;;
5684;SDS011;2865;53.114;9.130;2023-07-31T09:35:12;16.03;;;7.67;;
5684;SDS011;2865;53.114;9.130;2023-07-31T09:37:41;11.43;;;6.90;;
5684;SDS011;2865;53.114;9.130;2023-07-31T09:40:06;15.80;;;7.30;;
5684;SDS011;2865;53.114;9.130;2023-07-31T09:42:32;12.67;;;6.33;;
5684;SDS011;2865;53.114;9.130;2023-07-31T09:47:32;12.80;;;6.40;;
5684;SDS011;2865;53.114;9.130;2023-07-31T09:49:57;10.73;;;5.50;;
5684;SDS011;2865;53.114;9.130;2023-07-31T09:52:22;8.20;;;5.27;;
5684;SDS011;2865;53.114;9.130;2023-07-31T09:54:48;8.20;;;5.07;;
5684;SDS011;2865;53.114;9.130;2023-07-31T09:57:14;10.27;;;5.70;;
5684;SDS011;2865;53.114;9.130;2023-07-31T09:59:40;10.23;;;6.33;;
5684;SDS011;2865;53.114;9.130;2023-07-31T10:02:05;7.27;;;5.00;;
5684;SDS011;2865;53.114;9.130;2023-07-31T10:04:31;11.30;;;5.50;;
5684;SDS011;2865;53.114;9.130;2023-07-31T10:06:56;8.13;;;4.87;;
5684;SDS011;2865;53.114;9.130;2023-07-31T10:09:22;10.30;;;5.97;;
5684;SDS011;2865;53.114;9.130;2023-07-31T10:11:50;6.17;;;4.23;;
5684;SDS011;2865;53.114;9.130;2023-07-31T10:14:14;9.40;;;5.47;;
5684;SDS011;2865;53.114;9.130;2023-07-31T10:16:39;5.80;;;4.50;;
5684;SDS011;2865;53.114;9.130;2023-07-31T10:19:05;5.17;;;3.43;;
5684;SDS011;2865;53.114;9.130;2023-07-31T10:21:31;8.13;;;4.20;;
5684;SDS011;2865;53.114;9.130;2023-07-31T10:23:55;4.70;;;3.27;;
5684;SDS011;2865;53.114;9.130;2023-07-31T10:26:22;6.93;;;4.63;;
5684;SDS011;2865;53.114;9.130;2023-07-31T10:28:47;4.90;;;3.07;;
5684;SDS011;2865;53.114;9.130;2023-07-31T10:31:12;6.67;;;3.03;;
5684;SDS011;2865;53.114;9.130;2023-07-31T10:33:38;6.20;;;3.10;;
5684;SDS011;2865;53.114;9.130;2023-07-31T10:38:41;4.67;;;3.20;;
5684;SDS011;2865;53.114;9.130;2023-07-31T10:41:07;4.70;;;3.20;;
5684;SDS011;2865;53.114;9.130;2023-07-31T10:43:32;5.67;;;3.33;;
5684;SDS011;2865;53.114;9.130;2023-07-31T10:45:58;3.73;;;3.37;;
5684;SDS011;2865;53.114;9.130;2023-07-31T10:48:25;14.93;;;3.00;;
5684;SDS011;2865;53.114;9.130;2023-07-31T10:50:51;5.57;;;3.17;;
5684;SDS011;2865;53.114;9.130;2023-07-31T10:55:49;10.43;;;3.10;;
5684;SDS011;2865;53.114;9.130;2023-07-31T10:58:18;3.80;;;2.90;;
5684;SDS011;2865;53.114;9.130;2023-07-31T11:00:43;5.73;;;3.07;;
5684;SDS011;2865;53.114;9.130;2023-07-31T11:03:09;6.40;;;2.90;;
5684;SDS011;2865;53.114;9.130;2023-07-31T11:05:41;5.60;;;2.57;;
5684;SDS011;2865;53.114;9.130;2023-07-31T11:08:15;4.00;;;2.33;;
5684;SDS011;2865;53.114;9.130;2023-07-31T11:10:41;3.63;;;2.47;;
5684;SDS011;2865;53.114;9.130;2023-07-31T11:13:06;3.03;;;2.10;;
5684;SDS011;2865;53.114;9.130;2023-07-31T11:15:32;3.60;;;1.90;;
5684;SDS011;2865;53.114;9.130;2023-07-31T11:17:59;2.57;;;2.37;;
5684;SDS011;2865;53.114;9.130;2023-07-31T11:20:24;4.60;;;1.70;;
5684;SDS011;2865;53.114;9.130;2023-07-31T11:22:48;2.23;;;2.03;;
5684;SDS011;2865;53.114;9.130;2023-07-31T11:25:14;2.90;;;1.90;;
5684;SDS011;2865;53.114;9.130;2023-07-31T11:27:39;1.80;;;1.70;;
5684;SDS011;2865;53.114;9.130;2023-07-31T11:30:06;1.80;;;1.70;;
5684;SDS011;2865;53.114;9.130;2023-07-31T11:32:33;7.13;;;1.70;;
5684;SDS011;2865;53.114;9.130;2023-07-31T11:34:59;1.60;;;1.50;;
5684;SDS011;2865;53.114;9.130;2023-07-31T11:37:24;1.40;;;1.30;;
5684;SDS011;2865;53.114;9.130;2023-07-31T11:42:23;1.57;;;1.47;;
5684;SDS011;2865;53.114;9.130;2023-07-31T11:44:48;2.07;;;1.77;;
5684;SDS011;2865;53.114;9.130;2023-07-31T11:47:14;1.30;;;1.30;;
5684;SDS011;2865;53.114;9.130;2023-07-31T11:49:39;9.80;;;1.53;;
5684;SDS011;2865;53.114;9.130;2023-07-31T11:52:05;1.10;;;1.10;;
5684;SDS011;2865;53.114;9.130;2023-07-31T11:54:31;1.77;;;1.60;;
5684;SDS011;2865;53.114;9.130;2023-07-31T11:56:56;2.17;;;1.10;;
5684;SDS011;2865;53.114;9.130;2023-07-31T11:59:22;1.40;;;1.30;;
5684;SDS011;2865;53.114;9.130;2023-07-31T12:01:47;1.43;;;1.27;;
5684;SDS011;2865;53.114;9.130;2023-07-31T12:04:12;1.80;;;1.70;;
5684;SDS011;2865;53.114;9.130;2023-07-31T12:06:38;2.30;;;1.30;;
5684;SDS011;2865;53.114;9.130;2023-07-31T12:09:04;1.00;;;1.00;;
5684;SDS011;2865;53.114;9.130;2023-07-31T12:11:29;1.40;;;1.30;;
5684;SDS011;2865;53.114;9.130;2023-07-31T12:13:54;8.30;;;1.50;;
5684;SDS011;2865;53.114;9.130;2023-07-31T12:16:20;1.30;;;1.20;;
5684;SDS011;2865;53.114;9.130;2023-07-31T12:18:45;1.20;;;1.10;;
5684;SDS011;2865;53.114;9.130;2023-07-31T12:21:11;1.50;;;1.40;;
5684;SDS011;2865;53.114;9.130;2023-07-31T12:23:36;1.10;;;1.10;;
5684;SDS011;2865;53.114;9.130;2023-07-31T12:26:05;1.10;;;1.10;;
5684;SDS011;2865;53.114;9.130;2023-07-31T12:28:40;7.50;;;1.73;;
5684;SDS011;2865;53.114;9.130;2023-07-31T12:31:10;1.40;;;1.30;;
5684;SDS011;2865;53.114;9.130;2023-07-31T12:33:32;1.23;;;1.23;;
5684;SDS011;2865;53.114;9.130;2023-07-31T12:35:57;1.13;;;1.13;;
5684;SDS011;2865;53.114;9.130;2023-07-31T12:38:22;1.30;;;1.20;;
5684;SDS011;2865;53.114;9.130;2023-07-31T12:40:47;1.50;;;1.50;;
5684;SDS011;2865;53.114;9.130;2023-07-31T12:43:13;1.43;;;1.30;;
5684;SDS011;2865;53.114;9.130;2023-07-31T12:45:38;2.10;;;1.40;;
5684;SDS011;2865;53.114;9.130;2023-07-31T12:48:04;3.13;;;1.27;;
5684;SDS011;2865;53.114;9.130;2023-07-31T12:50:30;1.30;;;1.20;;
5684;SDS011;2865;53.114;9.130;2023-07-31T12:52:56;1.90;;;1.80;;
5684;SDS011;2865;53.114;9.130;2023-07-31T12:55:21;1.10;;;1.10;;
5684;SDS011;2865;53.114;9.130;2023-07-31T12:57:46;1.20;;;1.20;;
5684;SDS011;2865;53.114;9.130;2023-07-31T13:00:12;1.73;;;1.63;;
5684;SDS011;2865;53.114;9.130;2023-07-31T13:02:38;1.97;;;1.87;;
5684;SDS011;2865;53.114;9.130;2023-07-31T13:05:04;1.50;;;1.40;;
5684;SDS011;2865;53.114;9.130;2023-07-31T13:07:29;4.10;;;1.90;;
5684;SDS011;2865;53.114;9.130;2023-07-31T13:09:54;1.40;;;1.40;;
5684;SDS011;2865;53.114;9.130;2023-07-31T13:12:20;1.90;;;1.30;;
5684;SDS011;2865;53.114;9.130;2023-07-31T13:14:45;1.70;;;1.60;;
5684;SDS011;2865;53.114;9.130;2023-07-31T13:17:11;1.97;;;1.40;;
5684;SDS011;2865;53.114;9.130;2023-07-31T13:19:37;2.10;;;1.57;;
5684;SDS011;2865;53.114;9.130;2023-07-31T13:22:03;1.47;;;1.37;;
5684;SDS011;2865;53.114;9.130;2023-07-31T13:24:28;4.67;;;1.70;;
5684;SDS011;2865;53.114;9.130;2023-07-31T13:26:55;1.90;;;1.80;;
5684;SDS011;2865;53.114;9.130;2023-07-31T13:29:20;1.57;;;1.47;;
5684;SDS011;2865;53.114;9.130;2023-07-31T13:31:45;1.90;;;1.80;;
5684;SDS011;2865;53.114;9.130;2023-07-31T13:34:10;2.20;;;2.10;;
5684;SDS011;2865;53.114;9.130;2023-07-31T13:36:36;5.10;;;2.10;;
5684;SDS011;2865;53.114;9.130;2023-07-31T13:39:01;2.80;;;2.10;;
5684;SDS011;2865;53.114;9.130;2023-07-31T13:41:27;3.63;;;2.23;;
5684;SDS011;2865;53.114;9.130;2023-07-31T13:43:52;4.73;;;2.70;;
5684;SDS011;2865;53.114;9.130;2023-07-31T13:46:18;2.27;;;2.10;;
5684;SDS011;2865;53.114;9.130;2023-07-31T13:48:43;3.20;;;2.23;;
5684;SDS011;2865;53.114;9.130;2023-07-31T13:51:09;4.20;;;2.30;;
5684;SDS011;2865;53.114;9.130;2023-07-31T13:53:35;2.97;;;2.77;;
5684;SDS011;2865;53.114;9.130;2023-07-31T13:56:00;3.03;;;2.83;;
5684;SDS011;2865;53.114;9.130;2023-07-31T13:58:26;9.37;;;3.83;;
5684;SDS011;2865;53.114;9.130;2023-07-31T14:00:51;2.70;;;2.50;;
5684;SDS011;2865;53.114;9.130;2023-07-31T14:03:16;3.20;;;2.90;;
5684;SDS011;2865;53.114;9.130;2023-07-31T14:05:42;5.87;;;3.30;;
5684;SDS011;2865;53.114;9.130;2023-07-31T14:08:07;2.70;;;2.50;;
5684;SDS011;2865;53.114;9.130;2023-07-31T14:10:33;3.07;;;2.87;;
5684;SDS011;2865;53.114;9.130;2023-07-31T14:12:58;3.30;;;3.07;;
5684;SDS011;2865;53.114;9.130;2023-07-31T14:15:23;2.63;;;2.43;;
5684;SDS011;2865;53.114;9.130;2023-07-31T14:17:49;3.93;;;2.60;;
5684;SDS011;2865;53.114;9.130;2023-07-31T14:20:14;3.07;;;2.87;;
5684;SDS011;2865;53.114;9.130;2023-07-31T14:22:40;4.10;;;2.80;;
5684;SDS011;2865;53.114;9.130;2023-07-31T14:25:07;3.80;;;3.50;;
5684;SDS011;2865;53.114;9.130;2023-07-31T14:27:33;4.23;;;3.23;;
5684;SDS011;2865;53.114;9.130;2023-07-31T14:29:59;3.50;;;3.17;;
5684;SDS011;2865;53.114;9.130;2023-07-31T14:32:24;3.30;;;3.00;;
5684;SDS011;2865;53.114;9.130;2023-07-31T14:34:50;4.63;;;4.17;;
5684;SDS011;2865;53.114;9.130;2023-07-31T14:37:15;4.00;;;3.70;;
5684;SDS011;2865;53.114;9.130;2023-07-31T14:39:42;4.27;;;3.97;;
5684;SDS011;2865;53.114;9.130;2023-07-31T14:42:07;5.93;;;4.10;;
5684;SDS011;2865;53.114;9.130;2023-07-31T14:44:33;4.27;;;3.93;;
5684;SDS011;2865;53.114;9.130;2023-07-31T14:46:59;3.57;;;3.27;;
5684;SDS011;2865;53.114;9.130;2023-07-31T14:49:24;6.83;;;3.50;;
5684;SDS011;2865;53.114;9.130;2023-07-31T14:51:50;5.20;;;4.70;;
5684;SDS011;2865;53.114;9.130;2023-07-31T14:54:15;4.70;;;3.80;;
5684;SDS011;2865;53.114;9.130;2023-07-31T14:56:41;7.93;;;4.77;;
5684;SDS011;2865;53.114;9.130;2023-07-31T14:59:06;4.00;;;3.70;;
5684;SDS011;2865;53.114;9.130;2023-07-31T15:01:32;9.20;;;4.63;;
5684;SDS011;2865;53.114;9.130;2023-07-31T15:03:58;5.43;;;4.30;;
5684;SDS011;2865;53.114;9.130;2023-07-31T15:06:24;5.10;;;4.43;;
5684;SDS011;2865;53.114;9.130;2023-07-31T15:08:49;11.87;;;4.43;;
5684;SDS011;2865;53.114;9.130;2023-07-31T15:11:14;4.70;;;4.33;;
5684;SDS011;2865;53.114;9.130;2023-07-31T15:13:40;6.53;;;5.43;;
5684;SDS011;2865;53.114;9.130;2023-07-31T15:16:05;6.17;;;4.03;;